Huvudsida
METAR-TAF:

METAR-TAF

Flygplatser :

Joensuu flygplats

Joensuu, Finland

latitud: 62-40N, longitud: 029-38E, höjd: 119 m

Aktuellt väderrapport

Denna rapport gjordes för 38 minuter sedan, klockan 09:20 UTC
Vind 6 kt från syd
Temperatur 1°C
Fuktighet 93%
Tryck 1012 hPa
Sikt 10 km eller mer
Mulet på en höjd av 600 ft

METAR: EFJO 200920Z 19006KT 9999 OVC006 01/M00 Q1012

Tid: 11:58 (09:58 UTC)

Väderprognos

Denna rapport gjordes för 1 timme och 22 minuter sedan, klockan 08:36 UTC
Prognos gäller från 20 kl. 09 UTC till 20 kl. 18 UTC
Vind 6 kt från sydväst
Sikt: 3000 m
Brutna moln på en höjd av 400 ft
lätt snö
Blir
från 20 kl. 10 UTC till 20 kl. 12 UTC
Brutna moln på en höjd av 1000 ft
Temporärt
från 20 kl. 12 UTC till 20 kl. 15 UTC
Brutna moln på en höjd av 1500 ft
Temporärt
från 20 kl. 16 UTC till 20 kl. 18 UTC
Sikt: 2500 m
lätt snö

TAF: EFJO 200836Z 2009/2018 22006KT 3000 -SN BKN004 BECMG 2010/2012 BKN010 TEMPO 2012/2015 BKN015 TEMPO 2016/2018 2500 -SN

Aktuella väderrapporter och prognoser från 4000 flygplatser (METAR- och TAF-rapporter).

De tillgängliga stationerna syns som gula och röda prickar på kartan.

För musen över prickarna för att se namnen på stationerna.

Klicka sedan för att få väderrapporter och prognoser.

För att ändra kartan: Klicka på de gröna knapparna med ett svart kors på för att zooma in; den gröna knappen med ett streck på för att zooma ut; eller på de gröna pilarna för angränsande kartor.


METAR-TAF: